Greenbackville, Virginia
Current Conditions -  °F | °C
As of 3:54 AM on Sunday 26 Oct 2014 (Local Time) from KWAL Reporting Station
Clear Clear  
Wind Chill: 59°   Ceiling: Unl
Heat Index: 59°   Visibility: 10mi
Dew Point: 51°   Wind: 7mph
Humidity: 75%   Direction: 280°W
Pressure: 29.68"   Gusts: NA
Location:  38.01°N, 75.39°W
Report Text: KWAL 260754Z AUTO 28006KT 10SM CLR 15/11 A2968 RMK AO2 SLP049 T01500106
Loading
Personal Weather Stations






























Interactive Weather Map
Tropical Storm Tracking
New forecast layout! Learn more

10-Day Weather Forecast

Advertisements
Track Severe Weather on mobile